sensor_id;sensor_type;location;lat;lon;timestamp;temperature;humidity
42261;DHT22;27926;48.062;7.474;2024-03-17T00:01:35;9.30;99.90
42261;DHT22;27926;48.062;7.474;2024-03-17T00:04:00;9.30;99.90
42261;DHT22;27926;48.062;7.474;2024-03-17T00:06:24;9.30;99.90
42261;DHT22;27926;48.062;7.474;2024-03-17T00:08:49;9.30;99.90
42261;DHT22;27926;48.062;7.474;2024-03-17T00:11:14;9.30;99.90
42261;DHT22;27926;48.062;7.474;2024-03-17T00:13:39;9.20;99.90
42261;DHT22;27926;48.062;7.474;2024-03-17T00:16:03;9.20;99.90
42261;DHT22;27926;48.062;7.474;2024-03-17T00:18:29;9.20;99.90
42261;DHT22;27926;48.062;7.474;2024-03-17T00:20:53;9.20;99.90
42261;DHT22;27926;48.062;7.474;2024-03-17T00:23:18;9.10;99.90
42261;DHT22;27926;48.062;7.474;2024-03-17T00:25:42;9.10;99.90
42261;DHT22;27926;48.062;7.474;2024-03-17T00:28:07;9.00;99.90
42261;DHT22;27926;48.062;7.474;2024-03-17T00:30:32;8.90;99.90
42261;DHT22;27926;48.062;7.474;2024-03-17T00:32:57;8.80;99.90
42261;DHT22;27926;48.062;7.474;2024-03-17T00:35:24;8.80;99.90
42261;DHT22;27926;48.062;7.474;2024-03-17T00:37:49;8.70;99.90
42261;DHT22;27926;48.062;7.474;2024-03-17T00:40:14;8.70;99.90
42261;DHT22;27926;48.062;7.474;2024-03-17T00:42:40;8.70;99.90
42261;DHT22;27926;48.062;7.474;2024-03-17T00:45:08;8.70;99.90
42261;DHT22;27926;48.062;7.474;2024-03-17T00:47:34;8.70;99.90
42261;DHT22;27926;48.062;7.474;2024-03-17T00:49:59;8.70;99.90
42261;DHT22;27926;48.062;7.474;2024-03-17T00:52:23;8.70;99.90
42261;DHT22;27926;48.062;7.474;2024-03-17T00:54:51;8.70;99.90
42261;DHT22;27926;48.062;7.474;2024-03-17T00:57:15;9.90;99.90
42261;DHT22;27926;48.062;7.474;2024-03-17T00:59:40;8.70;99.90
42261;DHT22;27926;48.062;7.474;2024-03-17T01:02:04;8.70;99.90
42261;DHT22;27926;48.062;7.474;2024-03-17T01:04:29;8.70;99.90
42261;DHT22;27926;48.062;7.474;2024-03-17T01:06:53;8.70;99.90
42261;DHT22;27926;48.062;7.474;2024-03-17T01:09:18;8.70;99.90
42261;DHT22;27926;48.062;7.474;2024-03-17T01:11:42;8.70;99.90
42261;DHT22;27926;48.062;7.474;2024-03-17T01:14:08;8.70;99.90
42261;DHT22;27926;48.062;7.474;2024-03-17T01:16:32;8.70;99.90
42261;DHT22;27926;48.062;7.474;2024-03-17T01:18:57;8.70;99.90
42261;DHT22;27926;48.062;7.474;2024-03-17T01:21:21;8.70;99.90
42261;DHT22;27926;48.062;7.474;2024-03-17T01:23:50;8.70;99.90
42261;DHT22;27926;48.062;7.474;2024-03-17T01:26:14;8.80;99.90
42261;DHT22;27926;48.062;7.474;2024-03-17T01:28:39;8.80;99.90
42261;DHT22;27926;48.062;7.474;2024-03-17T01:31:05;8.80;99.90
42261;DHT22;27926;48.062;7.474;2024-03-17T01:33:30;8.80;99.90
42261;DHT22;27926;48.062;7.474;2024-03-17T01:35:54;8.80;99.90
42261;DHT22;27926;48.062;7.474;2024-03-17T01:38:20;8.80;99.90
42261;DHT22;27926;48.062;7.474;2024-03-17T01:40:45;8.80;99.90
42261;DHT22;27926;48.062;7.474;2024-03-17T01:43:10;8.80;99.90
42261;DHT22;27926;48.062;7.474;2024-03-17T01:45:35;8.80;99.90
42261;DHT22;27926;48.062;7.474;2024-03-17T01:48:00;8.80;99.90
42261;DHT22;27926;48.062;7.474;2024-03-17T01:50:26;8.70;99.90
42261;DHT22;27926;48.062;7.474;2024-03-17T01:52:53;8.60;99.90
42261;DHT22;27926;48.062;7.474;2024-03-17T01:55:18;8.60;99.90
42261;DHT22;27926;48.062;7.474;2024-03-17T01:57:43;8.40;99.90
42261;DHT22;27926;48.062;7.474;2024-03-17T02:00:08;8.40;99.90
42261;DHT22;27926;48.062;7.474;2024-03-17T02:02:33;8.30;99.90
42261;DHT22;27926;48.062;7.474;2024-03-17T02:04:58;8.20;99.90
42261;DHT22;27926;48.062;7.474;2024-03-17T02:07:23;8.10;99.90
42261;DHT22;27926;48.062;7.474;2024-03-17T02:09:47;8.00;99.90
42261;DHT22;27926;48.062;7.474;2024-03-17T02:12:12;7.90;99.90
42261;DHT22;27926;48.062;7.474;2024-03-17T02:14:36;7.80;99.90
42261;DHT22;27926;48.062;7.474;2024-03-17T02:17:01;7.70;99.90
42261;DHT22;27926;48.062;7.474;2024-03-17T02:19:26;7.60;99.90
42261;DHT22;27926;48.062;7.474;2024-03-17T02:21:51;7.50;99.90
42261;DHT22;27926;48.062;7.474;2024-03-17T02:24:15;7.40;99.90
42261;DHT22;27926;48.062;7.474;2024-03-17T02:26:40;7.30;99.90
42261;DHT22;27926;48.062;7.474;2024-03-17T02:29:04;7.20;99.90
42261;DHT22;27926;48.062;7.474;2024-03-17T02:31:29;7.20;99.90
42261;DHT22;27926;48.062;7.474;2024-03-17T02:33:53;7.10;99.90
42261;DHT22;27926;48.062;7.474;2024-03-17T02:36:18;7.00;99.90
42261;DHT22;27926;48.062;7.474;2024-03-17T02:38:42;7.00;99.90
42261;DHT22;27926;48.062;7.474;2024-03-17T02:41:26;7.10;99.90
42261;DHT22;27926;48.062;7.474;2024-03-17T02:43:50;7.10;99.90
42261;DHT22;27926;48.062;7.474;2024-03-17T02:46:15;7.10;99.90
42261;DHT22;27926;48.062;7.474;2024-03-17T02:48:40;7.20;99.90
42261;DHT22;27926;48.062;7.474;2024-03-17T02:51:14;7.20;99.90
42261;DHT22;27926;48.062;7.474;2024-03-17T02:53:38;7.30;99.90
42261;DHT22;27926;48.062;7.474;2024-03-17T02:56:04;7.30;99.90
42261;DHT22;27926;48.062;7.474;2024-03-17T02:58:29;7.30;99.90
42261;DHT22;27926;48.062;7.474;2024-03-17T03:00:53;7.40;99.90
42261;DHT22;27926;48.062;7.474;2024-03-17T03:03:18;7.40;99.90
42261;DHT22;27926;48.062;7.474;2024-03-17T03:05:42;7.40;99.90
42261;DHT22;27926;48.062;7.474;2024-03-17T03:08:07;7.40;99.90
42261;DHT22;27926;48.062;7.474;2024-03-17T03:10:32;7.40;99.90
42261;DHT22;27926;48.062;7.474;2024-03-17T03:12:59;7.40;99.90
42261;DHT22;27926;48.062;7.474;2024-03-17T03:15:24;7.30;99.90
42261;DHT22;27926;48.062;7.474;2024-03-17T03:17:48;7.30;99.90
42261;DHT22;27926;48.062;7.474;2024-03-17T03:20:13;7.30;99.90
42261;DHT22;27926;48.062;7.474;2024-03-17T03:22:38;7.30;99.90
42261;DHT22;27926;48.062;7.474;2024-03-17T03:25:02;7.20;99.90
42261;DHT22;27926;48.062;7.474;2024-03-17T03:27:27;7.20;99.90
42261;DHT22;27926;48.062;7.474;2024-03-17T03:29:52;7.10;99.90
42261;DHT22;27926;48.062;7.474;2024-03-17T03:32:17;7.00;99.90
42261;DHT22;27926;48.062;7.474;2024-03-17T03:34:42;7.00;99.90
42261;DHT22;27926;48.062;7.474;2024-03-17T03:37:07;6.90;99.90
42261;DHT22;27926;48.062;7.474;2024-03-17T03:39:34;6.80;99.90
42261;DHT22;27926;48.062;7.474;2024-03-17T03:42:00;6.70;99.90
42261;DHT22;27926;48.062;7.474;2024-03-17T03:44:25;6.40;99.90
42261;DHT22;27926;48.062;7.474;2024-03-17T03:46:49;6.60;99.90
42261;DHT22;27926;48.062;7.474;2024-03-17T03:49:14;6.60;99.90
42261;DHT22;27926;48.062;7.474;2024-03-17T03:51:39;6.60;99.90
42261;DHT22;27926;48.062;7.474;2024-03-17T03:54:04;6.50;99.90
42261;DHT22;27926;48.062;7.474;2024-03-17T03:56:30;6.40;99.90
42261;DHT22;27926;48.062;7.474;2024-03-17T03:58:55;6.30;99.90
42261;DHT22;27926;48.062;7.474;2024-03-17T04:01:19;6.30;99.90
42261;DHT22;27926;48.062;7.474;2024-03-17T04:03:46;6.20;99.90
42261;DHT22;27926;48.062;7.474;2024-03-17T04:06:10;6.20;99.90
42261;DHT22;27926;48.062;7.474;2024-03-17T04:08:35;6.10;99.90
42261;DHT22;27926;48.062;7.474;2024-03-17T04:11:00;6.00;99.90
42261;DHT22;27926;48.062;7.474;2024-03-17T04:13:28;5.90;99.90
42261;DHT22;27926;48.062;7.474;2024-03-17T04:15:56;5.80;99.90
42261;DHT22;27926;48.062;7.474;2024-03-17T04:18:21;5.70;99.90
42261;DHT22;27926;48.062;7.474;2024-03-17T04:20:45;5.70;99.90
42261;DHT22;27926;48.062;7.474;2024-03-17T04:23:10;5.90;99.90
42261;DHT22;27926;48.062;7.474;2024-03-17T04:25:35;5.70;99.90
42261;DHT22;27926;48.062;7.474;2024-03-17T04:28:00;5.70;99.90
42261;DHT22;27926;48.062;7.474;2024-03-17T04:30:24;5.70;99.90
42261;DHT22;27926;48.062;7.474;2024-03-17T04:32:49;5.70;99.90
42261;DHT22;27926;48.062;7.474;2024-03-17T04:35:14;5.60;99.90
42261;DHT22;27926;48.062;7.474;2024-03-17T04:37:41;5.60;99.90
42261;DHT22;27926;48.062;7.474;2024-03-17T04:40:06;5.50;99.90
42261;DHT22;27926;48.062;7.474;2024-03-17T04:42:33;5.50;99.90
42261;DHT22;27926;48.062;7.474;2024-03-17T04:44:58;5.40;99.90
42261;DHT22;27926;48.062;7.474;2024-03-17T04:47:22;5.40;99.90
42261;DHT22;27926;48.062;7.474;2024-03-17T04:49:47;5.30;99.90
42261;DHT22;27926;48.062;7.474;2024-03-17T04:52:12;5.40;99.90
42261;DHT22;27926;48.062;7.474;2024-03-17T04:54:37;5.40;99.90
42261;DHT22;27926;48.062;7.474;2024-03-17T04:57:02;5.40;99.90
42261;DHT22;27926;48.062;7.474;2024-03-17T04:59:26;5.40;99.90
42261;DHT22;27926;48.062;7.474;2024-03-17T05:01:51;5.30;99.90
42261;DHT22;27926;48.062;7.474;2024-03-17T05:04:16;5.30;99.90
42261;DHT22;27926;48.062;7.474;2024-03-17T05:06:40;5.30;99.90
42261;DHT22;27926;48.062;7.474;2024-03-17T05:09:06;5.30;99.90
42261;DHT22;27926;48.062;7.474;2024-03-17T05:11:30;5.60;99.90
42261;DHT22;27926;48.062;7.474;2024-03-17T05:13:55;5.30;99.90
42261;DHT22;27926;48.062;7.474;2024-03-17T05:16:21;5.20;99.90
42261;DHT22;27926;48.062;7.474;2024-03-17T05:18:48;5.30;99.90
42261;DHT22;27926;48.062;7.474;2024-03-17T05:21:12;5.30;99.90
42261;DHT22;27926;48.062;7.474;2024-03-17T05:23:37;5.30;99.90
42261;DHT22;27926;48.062;7.474;2024-03-17T05:26:02;5.40;99.90
42261;DHT22;27926;48.062;7.474;2024-03-17T05:28:28;5.30;99.90
42261;DHT22;27926;48.062;7.474;2024-03-17T05:30:53;5.30;99.90
42261;DHT22;27926;48.062;7.474;2024-03-17T05:33:18;5.40;99.90
42261;DHT22;27926;48.062;7.474;2024-03-17T05:35:49;5.50;99.90
42261;DHT22;27926;48.062;7.474;2024-03-17T05:38:13;5.50;99.90
42261;DHT22;27926;48.062;7.474;2024-03-17T05:40:38;5.50;99.90
42261;DHT22;27926;48.062;7.474;2024-03-17T05:43:05;5.50;99.90
42261;DHT22;27926;48.062;7.474;2024-03-17T05:45:31;5.50;99.90
42261;DHT22;27926;48.062;7.474;2024-03-17T05:47:56;5.60;99.90
42261;DHT22;27926;48.062;7.474;2024-03-17T05:50:20;5.60;99.90
42261;DHT22;27926;48.062;7.474;2024-03-17T05:52:45;5.60;99.90
42261;DHT22;27926;48.062;7.474;2024-03-17T05:55:09;5.60;99.90
42261;DHT22;27926;48.062;7.474;2024-03-17T05:57:38;5.60;99.90
42261;DHT22;27926;48.062;7.474;2024-03-17T06:00:03;5.60;99.90
42261;DHT22;27926;48.062;7.474;2024-03-17T06:02:27;5.60;99.90
42261;DHT22;27926;48.062;7.474;2024-03-17T06:04:52;5.70;99.90
42261;DHT22;27926;48.062;7.474;2024-03-17T06:07:17;5.70;99.90
42261;DHT22;27926;48.062;7.474;2024-03-17T06:09:42;5.70;99.90
42261;DHT22;27926;48.062;7.474;2024-03-17T06:12:07;5.80;99.90
42261;DHT22;27926;48.062;7.474;2024-03-17T06:14:31;5.80;99.90
42261;DHT22;27926;48.062;7.474;2024-03-17T06:16:56;5.90;99.90
42261;DHT22;27926;48.062;7.474;2024-03-17T06:19:20;5.90;99.90
42261;DHT22;27926;48.062;7.474;2024-03-17T06:21:45;6.10;99.90
42261;DHT22;27926;48.062;7.474;2024-03-17T06:24:09;6.10;99.90
42261;DHT22;27926;48.062;7.474;2024-03-17T06:26:34;6.00;99.90
42261;DHT22;27926;48.062;7.474;2024-03-17T06:29:02;6.20;99.90
42261;DHT22;27926;48.062;7.474;2024-03-17T06:31:27;6.20;99.90
42261;DHT22;27926;48.062;7.474;2024-03-17T06:33:51;6.30;99.90
42261;DHT22;27926;48.062;7.474;2024-03-17T06:36:16;6.40;99.90
42261;DHT22;27926;48.062;7.474;2024-03-17T06:38:41;6.50;99.90
42261;DHT22;27926;48.062;7.474;2024-03-17T06:41:06;6.60;99.90
42261;DHT22;27926;48.062;7.474;2024-03-17T06:43:30;6.60;99.90
42261;DHT22;27926;48.062;7.474;2024-03-17T06:45:59;6.70;99.90
42261;DHT22;27926;48.062;7.474;2024-03-17T06:48:24;6.80;99.90
42261;DHT22;27926;48.062;7.474;2024-03-17T06:50:49;6.90;99.90
42261;DHT22;27926;48.062;7.474;2024-03-17T06:53:13;7.00;99.90
42261;DHT22;27926;48.062;7.474;2024-03-17T06:55:38;7.10;99.90
42261;DHT22;27926;48.062;7.474;2024-03-17T06:58:02;7.20;99.90
42261;DHT22;27926;48.062;7.474;2024-03-17T07:00:27;7.30;99.90
42261;DHT22;27926;48.062;7.474;2024-03-17T07:02:52;7.40;99.90
42261;DHT22;27926;48.062;7.474;2024-03-17T07:05:16;7.60;99.90
42261;DHT22;27926;48.062;7.474;2024-03-17T07:07:41;7.80;99.90
42261;DHT22;27926;48.062;7.474;2024-03-17T07:10:06;8.00;99.90
42261;DHT22;27926;48.062;7.474;2024-03-17T07:12:30;8.20;99.90
42261;DHT22;27926;48.062;7.474;2024-03-17T07:14:55;8.40;99.90
42261;DHT22;27926;48.062;7.474;2024-03-17T07:17:19;8.60;99.90
42261;DHT22;27926;48.062;7.474;2024-03-17T07:19:44;8.80;99.90
42261;DHT22;27926;48.062;7.474;2024-03-17T07:22:08;9.00;99.90
42261;DHT22;27926;48.062;7.474;2024-03-17T07:24:33;9.20;99.90
42261;DHT22;27926;48.062;7.474;2024-03-17T07:26:57;9.40;99.90
42261;DHT22;27926;48.062;7.474;2024-03-17T07:29:22;9.50;99.90
42261;DHT22;27926;48.062;7.474;2024-03-17T07:31:46;9.60;99.90
42261;DHT22;27926;48.062;7.474;2024-03-17T07:34:11;9.70;99.90
42261;DHT22;27926;48.062;7.474;2024-03-17T07:36:35;9.80;99.90
42261;DHT22;27926;48.062;7.474;2024-03-17T07:39:00;9.90;99.90
42261;DHT22;27926;48.062;7.474;2024-03-17T07:41:25;10.10;99.90
42261;DHT22;27926;48.062;7.474;2024-03-17T07:43:49;10.40;99.90
42261;DHT22;27926;48.062;7.474;2024-03-17T07:46:14;10.60;99.90
42261;DHT22;27926;48.062;7.474;2024-03-17T07:48:39;10.80;99.90
42261;DHT22;27926;48.062;7.474;2024-03-17T07:51:05;10.80;99.90
42261;DHT22;27926;48.062;7.474;2024-03-17T07:53:30;10.80;99.90
42261;DHT22;27926;48.062;7.474;2024-03-17T07:58:26;10.50;99.90
42261;DHT22;27926;48.062;7.474;2024-03-17T08:00:51;10.40;99.90
42261;DHT22;27926;48.062;7.474;2024-03-17T08:03:15;10.40;99.90
42261;DHT22;27926;48.062;7.474;2024-03-17T08:05:40;10.30;99.90
42261;DHT22;27926;48.062;7.474;2024-03-17T08:08:06;10.30;99.90
42261;DHT22;27926;48.062;7.474;2024-03-17T08:10:32;10.30;99.90
42261;DHT22;27926;48.062;7.474;2024-03-17T08:12:56;10.30;99.90
42261;DHT22;27926;48.062;7.474;2024-03-17T08:15:21;10.40;99.90
42261;DHT22;27926;48.062;7.474;2024-03-17T08:17:45;10.60;99.90
42261;DHT22;27926;48.062;7.474;2024-03-17T08:20:10;10.70;99.90
42261;DHT22;27926;48.062;7.474;2024-03-17T08:22:34;10.70;99.90
42261;DHT22;27926;48.062;7.474;2024-03-17T08:24:59;10.60;99.90
42261;DHT22;27926;48.062;7.474;2024-03-17T08:27:23;10.60;99.90
42261;DHT22;27926;48.062;7.474;2024-03-17T08:29:48;10.60;99.90
42261;DHT22;27926;48.062;7.474;2024-03-17T08:32:13;10.70;99.90
42261;DHT22;27926;48.062;7.474;2024-03-17T08:34:39;10.70;99.90
42261;DHT22;27926;48.062;7.474;2024-03-17T08:37:03;10.80;99.90
42261;DHT22;27926;48.062;7.474;2024-03-17T08:39:28;10.90;99.90
42261;DHT22;27926;48.062;7.474;2024-03-17T08:41:52;10.90;99.90
42261;DHT22;27926;48.062;7.474;2024-03-17T08:44:16;11.00;99.90
42261;DHT22;27926;48.062;7.474;2024-03-17T08:46:41;11.00;99.90
42261;DHT22;27926;48.062;7.474;2024-03-17T08:49:06;11.00;99.90
42261;DHT22;27926;48.062;7.474;2024-03-17T08:51:30;11.20;99.90
42261;DHT22;27926;48.062;7.474;2024-03-17T08:53:56;11.20;99.90
42261;DHT22;27926;48.062;7.474;2024-03-17T08:56:24;11.20;99.90
42261;DHT22;27926;48.062;7.474;2024-03-17T08:58:49;11.10;99.90
42261;DHT22;27926;48.062;7.474;2024-03-17T09:01:13;11.20;99.90
42261;DHT22;27926;48.062;7.474;2024-03-17T09:03:38;11.10;99.90
42261;DHT22;27926;48.062;7.474;2024-03-17T09:06:04;11.10;99.90
42261;DHT22;27926;48.062;7.474;2024-03-17T09:08:28;11.20;99.90
42261;DHT22;27926;48.062;7.474;2024-03-17T09:10:53;11.20;99.90
42261;DHT22;27926;48.062;7.474;2024-03-17T09:13:22;11.20;99.90
42261;DHT22;27926;48.062;7.474;2024-03-17T09:15:57;11.20;99.90
42261;DHT22;27926;48.062;7.474;2024-03-17T09:18:24;11.20;99.90
42261;DHT22;27926;48.062;7.474;2024-03-17T09:21:07;11.30;99.90
42261;DHT22;27926;48.062;7.474;2024-03-17T09:23:32;11.50;99.90
42261;DHT22;27926;48.062;7.474;2024-03-17T09:25:58;11.50;99.90
42261;DHT22;27926;48.062;7.474;2024-03-17T09:28:23;11.30;99.90
42261;DHT22;27926;48.062;7.474;2024-03-17T09:30:48;11.30;99.90
42261;DHT22;27926;48.062;7.474;2024-03-17T09:33:13;11.40;99.90
42261;DHT22;27926;48.062;7.474;2024-03-17T09:35:37;11.50;99.90
42261;DHT22;27926;48.062;7.474;2024-03-17T09:38:02;11.40;99.90
42261;DHT22;27926;48.062;7.474;2024-03-17T09:40:28;11.40;99.90
42261;DHT22;27926;48.062;7.474;2024-03-17T09:42:53;11.40;99.90
42261;DHT22;27926;48.062;7.474;2024-03-17T09:45:18;11.50;99.90
42261;DHT22;27926;48.062;7.474;2024-03-17T09:47:42;11.60;99.90
42261;DHT22;27926;48.062;7.474;2024-03-17T09:50:12;11.60;99.90
42261;DHT22;27926;48.062;7.474;2024-03-17T09:52:37;11.70;99.90
42261;DHT22;27926;48.062;7.474;2024-03-17T09:55:24;11.60;99.90
42261;DHT22;27926;48.062;7.474;2024-03-17T09:57:48;11.70;99.90
42261;DHT22;27926;48.062;7.474;2024-03-17T10:00:14;11.80;99.90
42261;DHT22;27926;48.062;7.474;2024-03-17T10:02:44;11.80;99.90
42261;DHT22;27926;48.062;7.474;2024-03-17T10:05:19;11.60;99.90
42261;DHT22;27926;48.062;7.474;2024-03-17T10:07:45;11.50;99.90
42261;DHT22;27926;48.062;7.474;2024-03-17T10:10:13;11.50;99.90
42261;DHT22;27926;48.062;7.474;2024-03-17T10:12:37;11.40;99.90
42261;DHT22;27926;48.062;7.474;2024-03-17T10:15:02;11.40;99.90
42261;DHT22;27926;48.062;7.474;2024-03-17T10:17:29;11.50;99.90
42261;DHT22;27926;48.062;7.474;2024-03-17T10:19:58;11.60;99.90
42261;DHT22;27926;48.062;7.474;2024-03-17T10:22:34;11.80;99.90
42261;DHT22;27926;48.062;7.474;2024-03-17T10:24:59;12.00;99.90
42261;DHT22;27926;48.062;7.474;2024-03-17T10:27:23;12.00;99.90
42261;DHT22;27926;48.062;7.474;2024-03-17T10:29:48;12.00;99.90
42261;DHT22;27926;48.062;7.474;2024-03-17T10:32:13;12.00;99.90
42261;DHT22;27926;48.062;7.474;2024-03-17T10:34:38;12.00;99.90
42261;DHT22;27926;48.062;7.474;2024-03-17T10:37:10;12.10;99.90
42261;DHT22;27926;48.062;7.474;2024-03-17T10:39:41;12.10;99.90
42261;DHT22;27926;48.062;7.474;2024-03-17T10:42:07;12.20;99.90
42261;DHT22;27926;48.062;7.474;2024-03-17T10:44:32;12.40;99.90
42261;DHT22;27926;48.062;7.474;2024-03-17T10:46:58;12.50;99.90
42261;DHT22;27926;48.062;7.474;2024-03-17T10:49:32;12.40;99.90
42261;DHT22;27926;48.062;7.474;2024-03-17T10:51:59;12.60;99.90
42261;DHT22;27926;48.062;7.474;2024-03-17T10:54:24;12.60;99.90
42261;DHT22;27926;48.062;7.474;2024-03-17T10:56:55;12.50;99.90
42261;DHT22;27926;48.062;7.474;2024-03-17T10:59:22;12.60;99.90
42261;DHT22;27926;48.062;7.474;2024-03-17T11:01:51;12.70;99.90
42261;DHT22;27926;48.062;7.474;2024-03-17T11:04:15;12.80;99.90
42261;DHT22;27926;48.062;7.474;2024-03-17T11:06:40;12.80;99.90
42261;DHT22;27926;48.062;7.474;2024-03-17T11:09:06;12.80;99.90
42261;DHT22;27926;48.062;7.474;2024-03-17T11:11:37;12.90;99.90
42261;DHT22;27926;48.062;7.474;2024-03-17T11:14:19;12.90;99.90
42261;DHT22;27926;48.062;7.474;2024-03-17T11:16:44;13.00;99.90
42261;DHT22;27926;48.062;7.474;2024-03-17T11:19:08;12.90;99.90
42261;DHT22;27926;48.062;7.474;2024-03-17T11:21:38;12.90;99.90
42261;DHT22;27926;48.062;7.474;2024-03-17T11:24:03;13.00;99.90
42261;DHT22;27926;48.062;7.474;2024-03-17T11:26:29;13.20;99.90
42261;DHT22;27926;48.062;7.474;2024-03-17T11:28:53;13.30;99.90
42261;DHT22;27926;48.062;7.474;2024-03-17T11:33:56;13.30;99.90
42261;DHT22;27926;48.062;7.474;2024-03-17T11:46:36;13.20;99.90
42261;DHT22;27926;48.062;7.474;2024-03-17T11:49:03;13.20;99.90
42261;DHT22;27926;48.062;7.474;2024-03-17T11:51:28;13.20;99.90
42261;DHT22;27926;48.062;7.474;2024-03-17T11:53:58;13.20;99.90
42261;DHT22;27926;48.062;7.474;2024-03-17T11:56:23;13.30;99.90
42261;DHT22;27926;48.062;7.474;2024-03-17T11:58:51;13.30;99.90
42261;DHT22;27926;48.062;7.474;2024-03-17T12:01:30;13.20;99.90
42261;DHT22;27926;48.062;7.474;2024-03-17T12:03:54;13.20;99.90
42261;DHT22;27926;48.062;7.474;2024-03-17T12:06:21;13.20;99.90
42261;DHT22;27926;48.062;7.474;2024-03-17T12:08:46;13.20;99.90
42261;DHT22;27926;48.062;7.474;2024-03-17T12:11:17;13.20;99.90
42261;DHT22;27926;48.062;7.474;2024-03-17T12:13:42;13.20;99.90
42261;DHT22;27926;48.062;7.474;2024-03-17T12:16:14;13.30;99.90
42261;DHT22;27926;48.062;7.474;2024-03-17T12:18:38;13.40;99.90
42261;DHT22;27926;48.062;7.474;2024-03-17T12:21:05;13.50;99.90
42261;DHT22;27926;48.062;7.474;2024-03-17T12:23:29;13.50;99.90
42261;DHT22;27926;48.062;7.474;2024-03-17T12:25:54;13.60;99.90
42261;DHT22;27926;48.062;7.474;2024-03-17T12:28:19;13.60;99.90
42261;DHT22;27926;48.062;7.474;2024-03-17T12:30:43;13.70;99.90
42261;DHT22;27926;48.062;7.474;2024-03-17T12:33:08;13.80;99.90
42261;DHT22;27926;48.062;7.474;2024-03-17T12:35:35;13.80;99.90
42261;DHT22;27926;48.062;7.474;2024-03-17T12:37:59;13.80;99.90
42261;DHT22;27926;48.062;7.474;2024-03-17T12:40:24;13.70;99.90
42261;DHT22;27926;48.062;7.474;2024-03-17T12:42:49;13.70;99.90
42261;DHT22;27926;48.062;7.474;2024-03-17T12:45:14;13.50;99.90
42261;DHT22;27926;48.062;7.474;2024-03-17T12:47:46;13.40;99.90
42261;DHT22;27926;48.062;7.474;2024-03-17T12:50:12;13.30;99.90
42261;DHT22;27926;48.062;7.474;2024-03-17T12:52:39;13.30;99.90
42261;DHT22;27926;48.062;7.474;2024-03-17T12:57:47;13.30;99.90
42261;DHT22;27926;48.062;7.474;2024-03-17T13:00:30;13.30;99.90
42261;DHT22;27926;48.062;7.474;2024-03-17T13:02:58;13.40;99.90
42261;DHT22;27926;48.062;7.474;2024-03-17T13:05:23;13.40;99.90
42261;DHT22;27926;48.062;7.474;2024-03-17T13:07:50;13.50;99.90
42261;DHT22;27926;48.062;7.474;2024-03-17T13:10:18;13.50;99.90
42261;DHT22;27926;48.062;7.474;2024-03-17T13:12:43;13.60;99.90
42261;DHT22;27926;48.062;7.474;2024-03-17T13:15:15;13.70;99.90
42261;DHT22;27926;48.062;7.474;2024-03-17T13:17:39;13.70;99.90
42261;DHT22;27926;48.062;7.474;2024-03-17T13:20:05;13.80;99.90
42261;DHT22;27926;48.062;7.474;2024-03-17T13:22:32;13.80;99.90
42261;DHT22;27926;48.062;7.474;2024-03-17T13:25:00;13.80;99.90
42261;DHT22;27926;48.062;7.474;2024-03-17T13:27:24;14.90;99.90
42261;DHT22;27926;48.062;7.474;2024-03-17T13:29:49;13.90;99.90
42261;DHT22;27926;48.062;7.474;2024-03-17T13:32:14;14.00;99.90
42261;DHT22;27926;48.062;7.474;2024-03-17T13:34:40;14.00;99.90
42261;DHT22;27926;48.062;7.474;2024-03-17T13:37:04;14.10;99.90
42261;DHT22;27926;48.062;7.474;2024-03-17T13:39:29;14.00;99.90
42261;DHT22;27926;48.062;7.474;2024-03-17T13:41:55;14.00;99.90
42261;DHT22;27926;48.062;7.474;2024-03-17T13:44:21;13.90;99.90
42261;DHT22;27926;48.062;7.474;2024-03-17T13:46:46;14.00;99.90
42261;DHT22;27926;48.062;7.474;2024-03-17T13:49:12;14.00;99.90
42261;DHT22;27926;48.062;7.474;2024-03-17T13:51:37;13.90;99.90
42261;DHT22;27926;48.062;7.474;2024-03-17T13:54:02;13.90;99.90
42261;DHT22;27926;48.062;7.474;2024-03-17T13:56:27;13.90;99.90
42261;DHT22;27926;48.062;7.474;2024-03-17T13:58:51;13.90;99.90
42261;DHT22;27926;48.062;7.474;2024-03-17T14:01:16;13.90;99.90
42261;DHT22;27926;48.062;7.474;2024-03-17T14:03:40;13.80;99.90
42261;DHT22;27926;48.062;7.474;2024-03-17T14:06:06;13.60;99.90
42261;DHT22;27926;48.062;7.474;2024-03-17T14:08:33;13.50;99.90
42261;DHT22;27926;48.062;7.474;2024-03-17T14:10:57;13.40;99.90
42261;DHT22;27926;48.062;7.474;2024-03-17T14:13:22;13.30;99.90
42261;DHT22;27926;48.062;7.474;2024-03-17T14:15:46;13.20;99.90
42261;DHT22;27926;48.062;7.474;2024-03-17T14:18:11;13.20;99.90
42261;DHT22;27926;48.062;7.474;2024-03-17T14:20:35;13.20;99.90
42261;DHT22;27926;48.062;7.474;2024-03-17T14:23:01;13.20;99.90
42261;DHT22;27926;48.062;7.474;2024-03-17T14:25:27;13.30;99.90
42261;DHT22;27926;48.062;7.474;2024-03-17T14:27:53;13.30;99.90
42261;DHT22;27926;48.062;7.474;2024-03-17T14:30:18;13.30;99.90
42261;DHT22;27926;48.062;7.474;2024-03-17T14:32:43;13.30;99.90
42261;DHT22;27926;48.062;7.474;2024-03-17T14:35:12;13.30;99.90
42261;DHT22;27926;48.062;7.474;2024-03-17T14:37:37;13.40;99.90
42261;DHT22;27926;48.062;7.474;2024-03-17T14:40:01;13.50;99.90
42261;DHT22;27926;48.062;7.474;2024-03-17T14:42:30;13.50;99.90
42261;DHT22;27926;48.062;7.474;2024-03-17T14:44:55;13.40;99.90
42261;DHT22;27926;48.062;7.474;2024-03-17T14:47:20;13.50;99.90
42261;DHT22;27926;48.062;7.474;2024-03-17T14:49:44;13.50;99.90
42261;DHT22;27926;48.062;7.474;2024-03-17T14:52:09;13.40;99.90
42261;DHT22;27926;48.062;7.474;2024-03-17T14:54:34;13.40;99.90
42261;DHT22;27926;48.062;7.474;2024-03-17T14:56:58;13.30;99.90
42261;DHT22;27926;48.062;7.474;2024-03-17T14:59:24;13.30;99.90
42261;DHT22;27926;48.062;7.474;2024-03-17T15:01:48;13.30;99.90
42261;DHT22;27926;48.062;7.474;2024-03-17T15:04:13;13.30;99.90
42261;DHT22;27926;48.062;7.474;2024-03-17T15:06:38;13.30;99.90
42261;DHT22;27926;48.062;7.474;2024-03-17T15:09:02;13.20;99.90
42261;DHT22;27926;48.062;7.474;2024-03-17T15:11:28;13.20;99.90
42261;DHT22;27926;48.062;7.474;2024-03-17T15:13:53;13.20;99.90
42261;DHT22;27926;48.062;7.474;2024-03-17T15:16:17;13.20;99.90
42261;DHT22;27926;48.062;7.474;2024-03-17T15:18:42;13.10;99.90
42261;DHT22;27926;48.062;7.474;2024-03-17T15:21:07;13.10;99.90
42261;DHT22;27926;48.062;7.474;2024-03-17T15:23:32;13.00;99.90
42261;DHT22;27926;48.062;7.474;2024-03-17T15:26:03;13.00;99.90
42261;DHT22;27926;48.062;7.474;2024-03-17T15:28:40;13.00;99.90
42261;DHT22;27926;48.062;7.474;2024-03-17T15:31:06;12.90;99.90
42261;DHT22;27926;48.062;7.474;2024-03-17T15:33:30;12.90;99.90
42261;DHT22;27926;48.062;7.474;2024-03-17T15:35:55;12.80;99.90
42261;DHT22;27926;48.062;7.474;2024-03-17T15:38:20;12.80;99.90
42261;DHT22;27926;48.062;7.474;2024-03-17T15:40:46;12.70;99.90
42261;DHT22;27926;48.062;7.474;2024-03-17T15:43:10;12.70;99.90
42261;DHT22;27926;48.062;7.474;2024-03-17T15:45:35;12.70;99.90